Time;durP1;ratioP1;P1;durP2;ratioP2;P2;SDS_P1;SDS_P2;PMS_P1;PMS_P2;Temp;Humidity;BMP_temperature;BMP_pressure;BME280_temperature;BME280_humidity;BME280_pressure;Samples;Min_cycle;Max_cycle;Signal;HPM_P1;HPM_P2
2022/01/25 00:10:42;;;;;;;2.10;2.00;;;;;;;;;;6321199;28;20199;-77
2022/01/25 00:24:22;;;;;;;13.23;3.00;;;;;;;;;;6217859;28;20254;-78
2022/01/25 00:27:41;;;;;;;2.43;2.10;;;;;;;;;;6219550;28;20314;-78
2022/01/25 00:30:57;;;;;;;11.73;2.67;;;;;;;;;;6314312;28;20222;-78
2022/01/25 00:34:03;;;;;;;5.73;2.27;;;;;;;;;;6274220;28;20233;-78
2022/01/25 00:37:09;;;;;;;12.10;2.73;;;;;;;;;;6293035;28;20248;-77
2022/01/25 00:40:13;;;;;;;5.97;2.40;;;;;;;;;;6275633;28;20491;-77
2022/01/25 00:43:19;;;;;;;12.07;2.37;;;;;;;;;;6294037;28;20231;-78
2022/01/25 00:46:23;;;;;;;9.10;2.17;;;;;;;;;;6294405;28;20222;-78
2022/01/25 00:49:31;;;;;;;9.33;2.80;;;;;;;;;;6293634;28;20184;-75
2022/01/25 00:55:54;;;;;;;11.53;2.47;;;;;;;;;;6292925;28;20212;-77
2022/01/25 00:58:58;;;;;;;7.20;2.30;;;;;;;;;;6294676;28;20281;-77
2022/01/25 01:02:05;;;;;;;12.93;2.30;;;;;;;;;;6294375;28;20247;-78
2022/01/25 01:05:14;;;;;;;2.07;1.80;;;;;;;;;;6295055;28;20186;-78
2022/01/25 01:08:20;;;;;;;11.23;2.73;;;;;;;;;;6293825;28;20240;-78
2022/01/25 01:11:30;;;;;;;5.77;2.00;;;;;;;;;;6293551;28;20185;-77
2022/01/25 01:14:53;;;;;;;12.60;2.40;;;;;;;;;;6295110;28;20185;-77
2022/01/25 01:31:47;;;;;;;10.17;2.50;;;;;;;;;;6283610;28;20228;-78
2022/01/25 01:35:29;;;;;;;8.27;2.40;;;;;;;;;;6269362;28;20244;-77
2022/01/25 01:42:17;;;;;;;12.90;2.30;;;;;;;;;;6318841;28;20254;-78
2022/01/25 01:45:34;;;;;;;10.23;2.53;;;;;;;;;;6319028;28;20254;-78
2022/01/25 01:48:49;;;;;;;7.93;2.57;;;;;;;;;;6317557;28;20447;-77
2022/01/25 01:51:53;;;;;;;6.90;2.30;;;;;;;;;;6317476;28;20226;-78
2022/01/25 01:54:59;;;;;;;3.60;1.97;;;;;;;;;;6318071;28;20252;-78
2022/01/25 01:58:04;;;;;;;5.40;2.07;;;;;;;;;;6317961;28;20245;-78
2022/01/25 02:01:13;;;;;;;5.47;2.07;;;;;;;;;;6317266;28;20215;-78
2022/01/25 02:04:18;;;;;;;9.90;2.20;;;;;;;;;;6318649;28;20520;-77
2022/01/25 02:07:23;;;;;;;6.63;2.03;;;;;;;;;;6317628;28;20231;-77
2022/01/25 02:10:29;;;;;;;4.40;1.77;;;;;;;;;;6300609;28;20308;-77
2022/01/25 02:13:34;;;;;;;16.27;2.53;;;;;;;;;;6299240;28;20242;-77
2022/01/25 02:16:55;;;;;;;14.87;2.40;;;;;;;;;;6317539;28;20298;-77
2022/01/25 02:23:32;;;;;;;6.93;2.17;;;;;;;;;;6316943;28;20233;-77
2022/01/25 02:26:37;;;;;;;3.63;2.17;;;;;;;;;;6316474;28;20230;-77
2022/01/25 02:29:41;;;;;;;5.67;1.87;;;;;;;;;;6316544;28;20269;-77
2022/01/25 02:32:45;;;;;;;2.00;1.80;;;;;;;;;;6294983;28;20235;-77
2022/01/25 02:35:51;;;;;;;7.00;2.10;;;;;;;;;;6291952;28;20187;-77
2022/01/25 02:38:55;;;;;;;4.80;2.17;;;;;;;;;;6290746;28;20289;-77
2022/01/25 02:42:01;;;;;;;10.90;2.30;;;;;;;;;;6290680;28;20538;-77
2022/01/25 02:45:11;;;;;;;6.60;2.13;;;;;;;;;;6292358;28;20223;-77
2022/01/25 02:48:31;;;;;;;13.20;1.90;;;;;;;;;;6274573;28;20250;-77
2022/01/25 02:51:39;;;;;;;10.63;2.50;;;;;;;;;;6291315;28;20225;-77
2022/01/25 02:54:45;;;;;;;7.40;2.30;;;;;;;;;;6292342;28;20192;-77
2022/01/25 02:57:50;;;;;;;7.10;2.47;;;;;;;;;;6291696;28;20245;-77
2022/01/25 03:00:54;;;;;;;5.13;2.07;;;;;;;;;;6291828;28;20188;-77
2022/01/25 03:03:59;;;;;;;7.30;2.43;;;;;;;;;;6291426;28;20234;-77
2022/01/25 03:07:05;;;;;;;7.70;2.57;;;;;;;;;;6292069;28;20242;-77
2022/01/25 03:10:12;;;;;;;8.53;2.33;;;;;;;;;;6292344;28;20188;-77
2022/01/25 03:13:24;;;;;;;4.50;2.37;;;;;;;;;;6291053;28;20296;-77
2022/01/25 03:16:34;;;;;;;11.17;2.30;;;;;;;;;;6291294;28;20290;-77
2022/01/25 03:19:48;;;;;;;6.30;2.43;;;;;;;;;;6293378;28;20203;-77
2022/01/25 03:23:04;;;;;;;7.23;2.13;;;;;;;;;;6290658;28;20515;-77
2022/01/25 03:26:11;;;;;;;6.43;2.23;;;;;;;;;;6291773;28;20185;-77
2022/01/25 03:29:15;;;;;;;12.27;2.17;;;;;;;;;;6291941;28;20226;-77
2022/01/25 03:32:20;;;;;;;12.87;2.43;;;;;;;;;;6273441;28;20239;-77
2022/01/25 03:35:24;;;;;;;4.70;2.23;;;;;;;;;;6267298;28;20502;-77
2022/01/25 03:38:30;;;;;;;8.63;2.13;;;;;;;;;;6303011;28;20245;-77
2022/01/25 03:41:34;;;;;;;9.13;2.33;;;;;;;;;;6317566;28;20230;-77
2022/01/25 03:44:41;;;;;;;11.00;2.13;;;;;;;;;;6317235;28;20250;-77
2022/01/25 03:47:58;;;;;;;1.97;1.80;;;;;;;;;;6316531;28;20238;-77
2022/01/25 03:51:01;;;;;;;3.27;2.30;;;;;;;;;;6317875;28;20198;-77
2022/01/25 03:54:07;;;;;;;8.90;1.90;;;;;;;;;;6317067;28;20229;-77
2022/01/25 03:57:13;;;;;;;6.77;2.30;;;;;;;;;;6316139;28;20513;-77
2022/01/25 04:00:17;;;;;;;8.87;2.20;;;;;;;;;;6317053;28;20193;-77
2022/01/25 04:03:28;;;;;;;7.03;2.13;;;;;;;;;;6316030;28;20237;-77
2022/01/25 04:06:34;;;;;;;8.70;2.53;;;;;;;;;;6315325;28;20268;-77
2022/01/25 04:09:40;;;;;;;6.50;2.37;;;;;;;;;;6316363;28;20214;-77
2022/01/25 04:12:44;;;;;;;7.43;2.27;;;;;;;;;;6314667;28;20329;-77
2022/01/25 04:15:50;;;;;;;7.07;2.20;;;;;;;;;;6297934;28;20209;-77
2022/01/25 04:19:04;;;;;;;4.30;2.23;;;;;;;;;;6314940;28;20261;-77
2022/01/25 04:25:42;;;;;;;3.93;2.10;;;;;;;;;;6298207;28;20202;-77
2022/01/25 04:28:46;;;;;;;9.20;2.17;;;;;;;;;;6316015;28;20253;-77
2022/01/25 04:31:50;;;;;;;14.40;2.43;;;;;;;;;;6306605;28;20230;-77
2022/01/25 04:35:09;;;;;;;2.83;2.60;;;;;;;;;;6296417;28;20272;-77
2022/01/25 04:51:55;;;;;;;4.73;2.17;;;;;;;;;;6294422;28;20227;-77
2022/01/25 04:55:08;;;;;;;7.73;2.53;;;;;;;;;;6295488;28;20470;-77
2022/01/25 04:58:20;;;;;;;6.07;2.20;;;;;;;;;;6295128;28;20239;-77
2022/01/25 05:01:24;;;;;;;1.90;1.80;;;;;;;;;;6294431;28;20533;-77
2022/01/25 05:04:33;;;;;;;5.87;2.33;;;;;;;;;;6295365;28;20194;-77
2022/01/25 05:07:43;;;;;;;2.93;1.97;;;;;;;;;;6294988;28;20234;-77
2022/01/25 05:10:54;;;;;;;5.07;2.17;;;;;;;;;;6295241;28;20220;-77
2022/01/25 05:14:13;;;;;;;4.30;2.20;;;;;;;;;;6294019;28;20232;-77
2022/01/25 05:17:28;;;;;;;5.67;2.30;;;;;;;;;;6293824;28;20234;-77
2022/01/25 05:23:55;;;;;;;6.93;2.27;;;;;;;;;;6292708;28;20241;-77
2022/01/25 05:26:59;;;;;;;2.47;2.07;;;;;;;;;;6293717;28;20235;-77
2022/01/25 05:30:06;;;;;;;8.53;2.30;;;;;;;;;;6292699;28;20437;-77
2022/01/25 05:33:14;;;;;;;5.33;2.30;;;;;;;;;;6268334;28;20247;-77
2022/01/25 05:36:18;;;;;;;2.00;1.90;;;;;;;;;;6269010;28;20192;-77
2022/01/25 05:39:27;;;;;;;8.07;2.17;;;;;;;;;;6268732;28;20214;-77
2022/01/25 05:43:51;;;;;;;2.87;2.00;;;;;;;;;;6267621;28;20550;-77
2022/01/25 05:46:16;;;;;;;7.37;2.20;;;;;;;;;;6268301;28;20203;-77
2022/01/25 05:49:21;;;;;;;9.53;2.70;;;;;;;;;;6268416;28;20330;-77
2022/01/25 05:52:26;;;;;;;4.53;2.30;;;;;;;;;;6268847;28;20234;-77
2022/01/25 05:55:31;;;;;;;2.27;2.10;;;;;;;;;;6269435;28;20195;-77
2022/01/25 05:58:35;;;;;;;4.53;2.27;;;;;;;;;;6269626;28;20235;-77
2022/01/25 06:01:40;;;;;;;2.63;1.80;;;;;;;;;;6269798;28;20245;-77
2022/01/25 06:04:45;;;;;;;6.77;2.30;;;;;;;;;;6251004;28;20503;-77
2022/01/25 06:07:49;;;;;;;2.77;2.23;;;;;;;;;;6250909;28;20518;-77
2022/01/25 06:10:53;;;;;;;2.97;1.90;;;;;;;;;;6269369;28;20214;-77
2022/01/25 06:13:58;;;;;;;13.30;2.17;;;;;;;;;;6267748;28;20319;-77
2022/01/25 06:17:03;;;;;;;4.03;2.13;;;;;;;;;;6266758;28;20232;-77
2022/01/25 06:20:12;;;;;;;2.07;1.97;;;;;;;;;;6251209;28;20198;-77
2022/01/25 06:23:17;;;;;;;4.87;2.67;;;;;;;;;;6267858;28;20302;-77
2022/01/25 06:26:22;;;;;;;6.87;2.33;;;;;;;;;;6264926;28;20371;-77
2022/01/25 06:29:26;;;;;;;2.87;2.70;;;;;;;;;;6266689;28;20214;-77
2022/01/25 06:32:32;;;;;;;172.53;42.77;;;;;;;;;;6282487;28;20559;-77
2022/01/25 06:35:36;;;;;;;5.57;2.07;;;;;;;;;;6289351;28;20186;-78
2022/01/25 06:38:40;;;;;;;4.30;2.40;;;;;;;;;;6289653;28;20240;-78
2022/01/25 06:41:44;;;;;;;2.10;1.93;;;;;;;;;;6287869;28;20230;-78
2022/01/25 06:44:52;;;;;;;6.77;2.00;;;;;;;;;;6287242;28;20529;-78
2022/01/25 06:47:57;;;;;;;4.67;2.23;;;;;;;;;;6288428;28;20237;-79
2022/01/25 06:51:02;;;;;;;2.57;2.07;;;;;;;;;;6288381;28;20215;-79
2022/01/25 06:54:06;;;;;;;2.53;1.60;;;;;;;;;;6287753;28;20524;-77
2022/01/25 06:57:11;;;;;;;3.73;2.00;;;;;;;;;;6293429;28;20237;-77
2022/01/25 07:04:24;;;;;;;3.00;1.93;;;;;;;;;;6240271;28;20198;-78
2022/01/25 07:07:54;;;;;;;9.80;2.20;;;;;;;;;;6262399;28;20249;-77
2022/01/25 07:14:50;;;;;;;7.73;1.90;;;;;;;;;;6275226;28;20221;-77
2022/01/25 07:18:27;;;;;;;2.17;1.80;;;;;;;;;;6279297;28;20234;-77
2022/01/25 07:22:25;;;;;;;6.17;2.20;;;;;;;;;;6285241;28;20230;-78
2022/01/25 07:25:49;;;;;;;5.13;2.30;;;;;;;;;;6295621;28;20205;-77
2022/01/25 07:29:08;;;;;;;3.47;1.70;;;;;;;;;;6295653;28;20213;-77
2022/01/25 07:32:26;;;;;;;4.73;2.00;;;;;;;;;;6294924;28;20264;-78
2022/01/25 07:35:41;;;;;;;6.70;2.37;;;;;;;;;;6282730;28;20240;-78
2022/01/25 07:38:49;;;;;;;16.47;2.37;;;;;;;;;;6290207;28;20264;-78
2022/01/25 07:46:15;;;;;;;9.20;2.20;;;;;;;;;;6285123;28;20209;-80
2022/01/25 07:49:28;;;;;;;4.20;1.80;;;;;;;;;;6291732;28;20186;-78
2022/01/25 07:52:34;;;;;;;1.93;1.80;;;;;;;;;;6274049;28;20226;-76
2022/01/25 07:55:46;;;;;;;4.43;2.00;;;;;;;;;;6277465;28;20184;-76
2022/01/25 07:58:53;;;;;;;1.97;1.87;;;;;;;;;;6275853;28;20239;-76
2022/01/25 08:01:59;;;;;;;2.60;2.00;;;;;;;;;;6274089;28;20549;-77
2022/01/25 08:05:10;;;;;;;2.47;2.10;;;;;;;;;;6296397;28;20192;-76
2022/01/25 08:08:29;;;;;;;9.10;5.23;;;;;;;;;;6292909;28;20236;-76
2022/01/25 08:11:42;;;;;;;2.33;2.10;;;;;;;;;;6278859;28;20225;-76
2022/01/25 08:14:48;;;;;;;3.37;1.77;;;;;;;;;;6276390;28;20265;-76
2022/01/25 08:18:17;;;;;;;3.33;1.80;;;;;;;;;;6267703;28;20305;-76
2022/01/25 08:21:25;;;;;;;1.70;1.60;;;;;;;;;;6294966;28;20321;-76
2022/01/25 08:25:02;;;;;;;3.60;2.03;;;;;;;;;;6179554;28;20193;-76
2022/01/25 08:28:22;;;;;;;1.80;1.60;;;;;;;;;;6193710;28;20252;-76
2022/01/25 08:31:40;;;;;;;4.83;2.07;;;;;;;;;;6179093;28;20247;-77
2022/01/25 08:35:03;;;;;;;2.03;1.90;;;;;;;;;;6196126;28;20190;-76
2022/01/25 08:38:28;;;;;;;3.43;1.97;;;;;;;;;;6144115;28;20257;-76
2022/01/25 08:41:35;;;;;;;7.60;1.77;;;;;;;;;;6243170;28;20235;-76
2022/01/25 08:44:58;;;;;;;5.37;2.10;;;;;;;;;;6242573;28;20216;-76
2022/01/25 08:48:19;;;;;;;6.00;1.70;;;;;;;;;;6223809;28;20605;-76
2022/01/25 08:51:38;;;;;;;12.20;2.50;;;;;;;;;;6238913;28;20231;-76
2022/01/25 08:54:57;;;;;;;6.43;2.40;;;;;;;;;;6241430;28;20217;-77
2022/01/25 08:58:12;;;;;;;2.10;1.90;;;;;;;;;;6257370;28;20246;-76
2022/01/25 09:01:23;;;;;;;3.33;1.83;;;;;;;;;;6294210;28;20240;-77
2022/01/25 09:04:29;;;;;;;2.20;1.80;;;;;;;;;;6295064;28;20461;-76
2022/01/25 09:07:33;;;;;;;1.93;1.70;;;;;;;;;;6293943;28;20418;-75
2022/01/25 09:10:38;;;;;;;1.80;1.70;;;;;;;;;;6276954;28;20235;-75
2022/01/25 09:13:45;;;;;;;1.27;1.27;;;;;;;;;;6294321;28;20233;-76
2022/01/25 09:17:00;;;;;;;1.90;1.80;;;;;;;;;;6283802;28;20227;-76
2022/01/25 09:20:08;;;;;;;1.70;1.60;;;;;;;;;;6279073;28;20236;-76
2022/01/25 09:23:20;;;;;;;2.73;1.80;;;;;;;;;;6295055;28;20230;-76
2022/01/25 09:26:26;;;;;;;4.90;2.17;;;;;;;;;;6277572;28;20203;-76
2022/01/25 09:29:30;;;;;;;1.90;1.80;;;;;;;;;;6277369;28;20213;-75
2022/01/25 09:32:38;;;;;;;1.80;1.70;;;;;;;;;;6273986;28;20245;-76
2022/01/25 09:35:45;;;;;;;1.50;1.40;;;;;;;;;;6270474;28;20196;-76
2022/01/25 09:38:50;;;;;;;1.77;1.77;;;;;;;;;;6266686;28;20242;-76
2022/01/25 09:41:55;;;;;;;2.30;1.77;;;;;;;;;;6231522;28;20297;-76
2022/01/25 09:45:09;;;;;;;1.63;1.53;;;;;;;;;;6253469;28;20193;-76
2022/01/25 09:48:18;;;;;;;2.47;2.00;;;;;;;;;;6257957;28;20568;-76
2022/01/25 09:51:26;;;;;;;3.60;1.73;;;;;;;;;;6268867;28;20232;-76
2022/01/25 09:54:31;;;;;;;1.70;1.70;;;;;;;;;;6234715;28;20214;-76
2022/01/25 09:57:35;;;;;;;5.30;1.70;;;;;;;;;;6269784;28;20231;-76
2022/01/25 10:00:45;;;;;;;2.03;1.40;;;;;;;;;;6252985;28;20209;-76
2022/01/25 10:03:52;;;;;;;3.13;1.70;;;;;;;;;;6270597;28;20230;-76
2022/01/25 10:07:00;;;;;;;8.97;1.70;;;;;;;;;;6250412;28;20276;-76
2022/01/25 10:10:10;;;;;;;1.70;1.70;;;;;;;;;;6269402;28;20187;-76
2022/01/25 10:13:35;;;;;;;3.70;1.53;;;;;;;;;;6269089;28;20247;-76
2022/01/25 10:16:42;;;;;;;3.40;1.70;;;;;;;;;;6268421;28;20357;-76
2022/01/25 10:19:48;;;;;;;1.87;1.50;;;;;;;;;;6248615;28;20206;-75
2022/01/25 10:22:57;;;;;;;1.50;1.50;;;;;;;;;;6249158;28;20245;-77
2022/01/25 10:26:06;;;;;;;1.60;1.60;;;;;;;;;;6246779;28;20553;-75
2022/01/25 10:29:14;;;;;;;1.60;1.60;;;;;;;;;;6263712;28;20209;-77
2022/01/25 10:32:26;;;;;;;1.47;1.40;;;;;;;;;;6263917;28;20285;-76
2022/01/25 10:35:38;;;;;;;2.63;1.93;;;;;;;;;;6264668;28;20462;-76
2022/01/25 10:38:46;;;;;;;1.77;1.60;;;;;;;;;;6302626;28;20242;-76
2022/01/25 10:41:51;;;;;;;1.60;1.60;;;;;;;;;;6292839;28;20349;-76
2022/01/25 10:44:59;;;;;;;2.40;1.90;;;;;;;;;;6313826;28;20397;-75
2022/01/25 10:48:14;;;;;;;3.43;1.60;;;;;;;;;;6288119;28;20284;-76
2022/01/25 10:51:25;;;;;;;1.87;1.77;;;;;;;;;;6311536;28;20234;-76
2022/01/25 10:54:39;;;;;;;1.20;1.20;;;;;;;;;;6317170;28;20201;-77
2022/01/25 10:57:45;;;;;;;2.07;1.40;;;;;;;;;;6317749;28;20230;-76
2022/01/25 11:01:01;;;;;;;1.30;1.30;;;;;;;;;;6318898;28;20187;-76
2022/01/25 11:04:09;;;;;;;1.60;1.50;;;;;;;;;;6317261;28;20234;-77
2022/01/25 11:07:17;;;;;;;3.27;1.40;;;;;;;;;;6283560;28;20250;-76
2022/01/25 11:10:23;;;;;;;3.00;1.50;;;;;;;;;;6317415;28;20305;-76
2022/01/25 11:13:37;;;;;;;1.47;1.43;;;;;;;;;;6300797;28;20241;-76
2022/01/25 11:16:45;;;;;;;4.17;1.50;;;;;;;;;;6318721;28;20231;-76
2022/01/25 11:19:54;;;;;;;1.50;1.40;;;;;;;;;;6301772;28;20199;-75
2022/01/25 11:23:03;;;;;;;1.30;1.30;;;;;;;;;;6300397;28;20245;-77
2022/01/25 11:26:14;;;;;;;2.67;1.47;;;;;;;;;;6318375;28;20205;-77
2022/01/25 11:29:19;;;;;;;1.80;1.23;;;;;;;;;;6318205;28;20281;-77
2022/01/25 11:32:34;;;;;;;1.27;1.20;;;;;;;;;;6299102;28;20239;-77
2022/01/25 11:35:39;;;;;;;3.10;1.37;;;;;;;;;;6293503;28;20187;-76
2022/01/25 11:38:50;;;;;;;1.80;1.20;;;;;;;;;;6291809;28;20281;-76
2022/01/25 11:42:03;;;;;;;4.00;1.57;;;;;;;;;;6275874;28;20301;-76
2022/01/25 11:45:12;;;;;;;1.87;1.57;;;;;;;;;;6277008;28;20203;-76
2022/01/25 11:48:20;;;;;;;1.60;1.43;;;;;;;;;;6292293;28;20246;-76
2022/01/25 11:51:25;;;;;;;3.23;1.73;;;;;;;;;;6292126;28;20184;-77
2022/01/25 11:54:36;;;;;;;1.30;1.30;;;;;;;;;;6272755;28;20556;-76
2022/01/25 11:57:46;;;;;;;1.37;1.30;;;;;;;;;;6290642;28;20245;-77
2022/01/25 12:01:00;;;;;;;3.03;1.50;;;;;;;;;;6275578;28;20339;-76
2022/01/25 12:04:10;;;;;;;1.53;1.47;;;;;;;;;;6290104;28;20239;-77
2022/01/25 12:07:24;;;;;;;1.17;1.17;;;;;;;;;;6291633;28;20238;-76
2022/01/25 12:10:39;;;;;;;1.43;1.40;;;;;;;;;;6293002;28;20188;-76
2022/01/25 12:13:44;;;;;;;1.43;1.20;;;;;;;;;;6292124;28;20250;-76
2022/01/25 12:16:57;;;;;;;1.70;1.60;;;;;;;;;;6281644;28;20565;-76
2022/01/25 12:20:06;;;;;;;1.20;1.20;;;;;;;;;;6292430;28;20223;-77
2022/01/25 12:23:19;;;;;;;1.13;1.10;;;;;;;;;;6275724;28;20283;-76
2022/01/25 12:27:01;;;;;;;1.80;1.30;;;;;;;;;;6292687;28;20232;-76
2022/01/25 12:30:11;;;;;;;1.20;1.20;;;;;;;;;;6294517;28;20203;-77
2022/01/25 12:33:24;;;;;;;1.43;1.07;;;;;;;;;;6251397;28;20233;-76
2022/01/25 12:36:35;;;;;;;1.87;1.40;;;;;;;;;;6241755;28;20247;-77
2022/01/25 12:39:46;;;;;;;0.90;0.90;;;;;;;;;;6269984;28;20187;-76
2022/01/25 12:42:52;;;;;;;3.93;1.10;;;;;;;;;;6269241;28;20251;-77
2022/01/25 12:46:00;;;;;;;2.20;1.30;;;;;;;;;;6268751;28;20214;-77
2022/01/25 12:49:11;;;;;;;1.50;1.40;;;;;;;;;;6269044;28;20252;-76
2022/01/25 12:52:17;;;;;;;1.10;1.10;;;;;;;;;;6272621;28;20280;-76
2022/01/25 12:55:25;;;;;;;3.03;1.30;;;;;;;;;;6273299;28;20186;-77
2022/01/25 12:58:33;;;;;;;3.67;1.37;;;;;;;;;;6272648;28;20250;-76
2022/01/25 13:01:38;;;;;;;1.60;1.10;;;;;;;;;;6270809;28;20239;-77
2022/01/25 13:04:44;;;;;;;1.73;1.70;;;;;;;;;;6270783;28;20216;-76
2022/01/25 13:07:49;;;;;;;1.63;1.20;;;;;;;;;;6269974;28;20230;-76
2022/01/25 13:10:57;;;;;;;1.90;1.40;;;;;;;;;;6253216;28;20225;-76
2022/01/25 13:14:18;;;;;;;2.13;2.03;;;;;;;;;;6253455;28;20271;-76
2022/01/25 13:17:25;;;;;;;3.47;1.30;;;;;;;;;;6270496;28;20233;-76
2022/01/25 13:20:30;;;;;;;2.10;2.03;;;;;;;;;;6253461;28;20380;-76
2022/01/25 13:23:36;;;;;;;1.77;1.70;;;;;;;;;;6268106;28;20259;-76
2022/01/25 13:26:52;;;;;;;1.70;1.70;;;;;;;;;;6268524;28;20239;-76
2022/01/25 13:33:23;;;;;;;1.43;1.33;;;;;;;;;;6245385;28;20246;-77
2022/01/25 13:36:31;;;;;;;1.43;1.33;;;;;;;;;;6244898;28;20226;-77
2022/01/25 13:39:40;;;;;;;2.00;1.30;;;;;;;;;;6246385;28;20265;-77
2022/01/25 13:43:18;;;;;;;1.10;1.10;;;;;;;;;;6245737;28;20239;-77
2022/01/25 13:46:13;;;;;;;1.23;1.23;;;;;;;;;;6228004;28;20328;-76
2022/01/25 13:49:21;;;;;;;2.07;1.47;;;;;;;;;;6212898;28;20205;-76
2022/01/25 13:52:31;;;;;;;1.40;1.40;;;;;;;;;;6244972;28;20229;-76
2022/01/25 13:55:37;;;;;;;1.40;1.30;;;;;;;;;;6228846;28;20287;-76
2022/01/25 13:58:44;;;;;;;2.37;1.20;;;;;;;;;;6245853;28;20236;-75
2022/01/25 14:01:53;;;;;;;1.83;1.73;;;;;;;;;;6228921;28;20291;-76
2022/01/25 14:05:02;;;;;;;2.57;1.10;;;;;;;;;;6247407;28;20192;-76
2022/01/25 14:08:08;;;;;;;1.93;1.37;;;;;;;;;;6245257;28;20236;-76
2022/01/25 14:11:21;;;;;;;5.37;1.40;;;;;;;;;;6245182;28;20209;-76
2022/01/25 14:21:43;;;;;;;1.50;1.40;;;;;;;;;;6240482;28;20210;-77
2022/01/25 14:24:52;;;;;;;4.43;1.40;;;;;;;;;;6241093;28;20192;-78
2022/01/25 14:27:57;;;;;;;1.47;1.40;;;;;;;;;;6239993;28;20236;-78
2022/01/25 14:31:03;;;;;;;3.30;1.10;;;;;;;;;;6255316;28;20199;-76
2022/01/25 14:34:13;;;;;;;1.03;1.03;;;;;;;;;;6289549;28;20231;-77
2022/01/25 14:37:22;;;;;;;1.80;1.20;;;;;;;;;;6296466;28;20647;-77
2022/01/25 14:40:28;;;;;;;1.30;1.30;;;;;;;;;;6317720;28;20446;-81
2022/01/25 14:43:33;;;;;;;1.40;1.40;;;;;;;;;;6314695;28;20244;-77
2022/01/25 14:46:40;;;;;;;2.27;1.33;;;;;;;;;;6296694;28;20297;-77
2022/01/25 14:49:50;;;;;;;3.40;1.30;;;;;;;;;;6318184;28;20218;-79
2022/01/25 14:53:04;;;;;;;1.00;1.00;;;;;;;;;;6283098;28;20255;-77
2022/01/25 14:56:14;;;;;;;1.57;1.10;;;;;;;;;;6296836;28;20384;-78
2022/01/25 14:59:25;;;;;;;1.23;1.20;;;;;;;;;;6314635;28;20193;-77
2022/01/25 15:02:29;;;;;;;1.30;1.20;;;;;;;;;;6312091;28;20231;-78
2022/01/25 15:05:35;;;;;;;1.10;1.10;;;;;;;;;;6314720;28;20198;-78
2022/01/25 15:08:47;;;;;;;1.07;1.03;;;;;;;;;;6312948;28;20297;-78
2022/01/25 15:11:53;;;;;;;1.40;1.37;;;;;;;;;;6316557;28;20237;-79
2022/01/25 15:15:04;;;;;;;6.03;1.40;;;;;;;;;;6314798;28;20232;-78
2022/01/25 15:18:18;;;;;;;3.47;1.47;;;;;;;;;;6312776;28;20241;-79
2022/01/25 15:21:24;;;;;;;2.60;1.40;;;;;;;;;;6315743;28;20216;-79
2022/01/25 15:24:30;;;;;;;1.40;1.40;;;;;;;;;;6316763;28;20222;-78
2022/01/25 15:27:37;;;;;;;1.10;1.10;;;;;;;;;;6314875;28;20234;-78
2022/01/25 15:30:42;;;;;;;1.60;1.40;;;;;;;;;;6315909;28;20208;-77
2022/01/25 15:33:50;;;;;;;1.23;1.13;;;;;;;;;;6317998;28;20283;-76
2022/01/25 15:36:58;;;;;;;3.53;1.13;;;;;;;;;;6279795;28;20230;-76
2022/01/25 15:40:05;;;;;;;7.90;1.40;;;;;;;;;;6295679;28;20243;-76
2022/01/25 15:43:10;;;;;;;3.73;1.10;;;;;;;;;;6311753;28;20528;-76
2022/01/25 15:46:21;;;;;;;3.20;1.20;;;;;;;;;;6311745;28;20438;-76
2022/01/25 15:49:27;;;;;;;1.43;1.33;;;;;;;;;;6313004;28;20270;-76
2022/01/25 15:52:33;;;;;;;1.10;1.10;;;;;;;;;;6311854;28;20230;-76
2022/01/25 15:55:37;;;;;;;1.13;1.13;;;;;;;;;;6312316;28;20215;-76
2022/01/25 15:58:41;;;;;;;1.37;1.00;;;;;;;;;;6312606;28;20358;-76
2022/01/25 16:01:48;;;;;;;2.03;1.50;;;;;;;;;;6313083;28;20288;-76
2022/01/25 16:04:53;;;;;;;1.43;1.40;;;;;;;;;;6312558;28;20549;-76
2022/01/25 16:08:02;;;;;;;2.50;1.50;;;;;;;;;;6312891;28;20230;-76
2022/01/25 16:11:13;;;;;;;1.20;1.20;;;;;;;;;;6312208;28;20536;-76
2022/01/25 16:14:18;;;;;;;1.30;1.30;;;;;;;;;;6313028;28;20196;-76
2022/01/25 16:17:22;;;;;;;7.37;1.47;;;;;;;;;;6311967;28;20234;-76
2022/01/25 16:20:27;;;;;;;2.13;1.33;;;;;;;;;;6313838;28;20256;-76
2022/01/25 16:23:33;;;;;;;1.27;1.27;;;;;;;;;;6311500;28;20297;-75
2022/01/25 16:26:37;;;;;;;2.73;1.40;;;;;;;;;;6316150;28;20297;-76
2022/01/25 16:29:41;;;;;;;3.90;1.60;;;;;;;;;;6316612;28;20376;-76
2022/01/25 16:32:47;;;;;;;1.50;1.50;;;;;;;;;;6295370;28;20302;-76
2022/01/25 16:35:51;;;;;;;2.17;1.27;;;;;;;;;;6292368;28;20263;-76
2022/01/25 16:38:56;;;;;;;1.47;1.47;;;;;;;;;;6292077;28;20296;-76
2022/01/25 16:42:01;;;;;;;3.30;1.57;;;;;;;;;;6292276;28;20331;-76
2022/01/25 16:45:27;;;;;;;1.30;1.30;;;;;;;;;;6274896;28;20213;-76
2022/01/25 16:48:32;;;;;;;1.57;1.57;;;;;;;;;;6293296;28;20232;-76
2022/01/25 16:51:37;;;;;;;3.43;1.60;;;;;;;;;;6293909;28;20228;-76
2022/01/25 16:54:43;;;;;;;1.70;1.67;;;;;;;;;;6294981;28;20445;-75
2022/01/25 16:58:08;;;;;;;1.57;1.57;;;;;;;;;;6275868;28;20515;-76
2022/01/25 17:01:13;;;;;;;6.90;2.00;;;;;;;;;;6275011;28;20201;-76
2022/01/25 17:04:19;;;;;;;5.83;1.90;;;;;;;;;;6292123;28;20386;-76
2022/01/25 17:07:24;;;;;;;9.03;1.80;;;;;;;;;;6291663;28;20252;-75
2022/01/25 17:10:31;;;;;;;4.33;2.07;;;;;;;;;;6291847;28;20190;-75
2022/01/25 17:13:42;;;;;;;2.10;2.00;;;;;;;;;;6291673;28;20236;-76
2022/01/25 17:16:47;;;;;;;2.20;1.90;;;;;;;;;;6273359;28;20237;-75
2022/01/25 17:19:51;;;;;;;2.30;2.17;;;;;;;;;;6291197;28;20194;-75
2022/01/25 17:22:56;;;;;;;2.20;1.90;;;;;;;;;;6290219;28;20232;-75
2022/01/25 17:26:01;;;;;;;6.67;2.27;;;;;;;;;;6289818;28;20473;-75
2022/01/25 17:29:08;;;;;;;2.00;1.90;;;;;;;;;;6290058;28;20310;-76
2022/01/25 17:32:12;;;;;;;5.70;2.20;;;;;;;;;;6307817;28;20232;-76
2022/01/25 17:35:17;;;;;;;1.80;1.70;;;;;;;;;;6316948;28;20415;-77
2022/01/25 17:38:23;;;;;;;2.60;2.23;;;;;;;;;;6317651;28;20430;-76
2022/01/25 17:41:28;;;;;;;5.87;2.00;;;;;;;;;;6317148;28;20193;-76
2022/01/25 17:44:35;;;;;;;6.50;2.03;;;;;;;;;;6319320;28;20199;-76
2022/01/25 17:47:41;;;;;;;2.83;1.77;;;;;;;;;;6317745;28;20238;-76
2022/01/25 17:50:46;;;;;;;2.07;1.97;;;;;;;;;;6316961;28;20477;-77
2022/01/25 17:53:52;;;;;;;2.30;2.20;;;;;;;;;;6316562;28;20228;-76
2022/01/25 17:56:58;;;;;;;2.27;2.13;;;;;;;;;;6317013;28;20234;-76
2022/01/25 18:00:05;;;;;;;3.83;2.30;;;;;;;;;;6315001;28;20191;-76
2022/01/25 18:03:19;;;;;;;2.27;2.10;;;;;;;;;;6314650;28;20232;-76
2022/01/25 18:06:23;;;;;;;5.30;2.50;;;;;;;;;;6318146;28;20387;-76
2022/01/25 18:09:31;;;;;;;3.67;2.13;;;;;;;;;;6320079;28;20495;-77
2022/01/25 18:12:40;;;;;;;2.93;2.60;;;;;;;;;;6316034;28;20238;-77
2022/01/25 18:16:17;;;;;;;5.93;2.37;;;;;;;;;;6304721;28;20222;-77
2022/01/25 18:19:23;;;;;;;3.53;2.63;;;;;;;;;;6299421;28;20186;-76
2022/01/25 18:22:34;;;;;;;2.60;2.40;;;;;;;;;;6309559;28;20240;-77
2022/01/25 18:25:53;;;;;;;3.07;2.73;;;;;;;;;;6317514;28;20212;-78
2022/01/25 18:28:59;;;;;;;5.97;2.80;;;;;;;;;;6318925;28;20233;-78
2022/01/25 18:32:09;;;;;;;2.90;2.50;;;;;;;;;;6302187;28;20233;-79
2022/01/25 18:35:13;;;;;;;3.23;2.40;;;;;;;;;;6273986;28;20257;-77
2022/01/25 18:38:19;;;;;;;4.33;2.80;;;;;;;;;;6290480;28;20237;-78
2022/01/25 18:41:24;;;;;;;2.90;2.70;;;;;;;;;;6292160;28;20189;-77
2022/01/25 18:44:29;;;;;;;2.60;2.47;;;;;;;;;;6293942;28;20197;-78
2022/01/25 18:47:35;;;;;;;3.67;3.37;;;;;;;;;;6269329;28;20253;-78
2022/01/25 18:50:40;;;;;;;4.60;2.57;;;;;;;;;;6287911;28;20234;-78
2022/01/25 18:53:44;;;;;;;3.30;3.10;;;;;;;;;;6289175;28;20409;-76
2022/01/25 18:56:50;;;;;;;3.53;2.70;;;;;;;;;;6293320;28;20239;-77
2022/01/25 19:00:01;;;;;;;3.60;3.03;;;;;;;;;;6289660;28;20243;-80
2022/01/25 19:03:15;;;;;;;3.63;3.43;;;;;;;;;;6277245;28;20232;-77
2022/01/25 19:06:20;;;;;;;6.67;3.00;;;;;;;;;;6293809;28;20191;-76
2022/01/25 19:09:27;;;;;;;5.53;3.37;;;;;;;;;;6296762;28;20274;-76
2022/01/25 19:12:31;;;;;;;3.70;3.30;;;;;;;;;;6277823;28;20235;-76
2022/01/25 19:15:38;;;;;;;3.37;3.17;;;;;;;;;;6293491;28;20185;-76
2022/01/25 19:18:42;;;;;;;4.13;3.10;;;;;;;;;;6275900;28;20240;-76
2022/01/25 19:21:47;;;;;;;4.97;3.30;;;;;;;;;;6276345;28;20233;-77
2022/01/25 19:24:51;;;;;;;7.90;3.63;;;;;;;;;;6294871;28;20194;-76
2022/01/25 19:28:00;;;;;;;6.40;3.47;;;;;;;;;;6294545;28;20243;-78
2022/01/25 19:31:05;;;;;;;4.20;3.40;;;;;;;;;;6284588;28;20195;-77
2022/01/25 19:34:12;;;;;;;4.33;3.50;;;;;;;;;;6319956;28;20379;-77
2022/01/25 19:37:20;;;;;;;3.00;2.70;;;;;;;;;;6319214;28;20247;-76
2022/01/25 19:40:25;;;;;;;3.17;2.87;;;;;;;;;;6303216;28;20216;-77
2022/01/25 19:43:32;;;;;;;5.80;3.37;;;;;;;;;;6316766;28;20249;-77
2022/01/25 19:46:39;;;;;;;4.13;2.73;;;;;;;;;;6315990;28;20233;-78
2022/01/25 19:49:45;;;;;;;2.87;2.70;;;;;;;;;;6319188;28;20376;-77
2022/01/25 19:52:56;;;;;;;3.20;2.77;;;;;;;;;;6318819;28;20234;-78
2022/01/25 19:56:03;;;;;;;4.77;3.10;;;;;;;;;;6320295;28;20517;-77
2022/01/25 19:59:08;;;;;;;2.70;2.20;;;;;;;;;;6320579;28;20248;-77
2022/01/25 20:02:14;;;;;;;4.83;3.60;;;;;;;;;;6323416;28;20233;-78
2022/01/25 20:05:19;;;;;;;7.97;3.03;;;;;;;;;;6306340;28;20201;-78
2022/01/25 20:08:32;;;;;;;5.10;3.13;;;;;;;;;;6304204;28;20248;-77
2022/01/25 20:11:41;;;;;;;5.43;2.70;;;;;;;;;;6305984;28;20500;-77
2022/01/25 20:14:50;;;;;;;7.63;3.50;;;;;;;;;;6326046;28;20191;-77
2022/01/25 20:17:56;;;;;;;3.57;3.20;;;;;;;;;;6307276;28;20307;-77
2022/01/25 20:21:07;;;;;;;6.03;3.37;;;;;;;;;;6306709;28;20508;-77